sensor_id;sensor_type;location;lat;lon;timestamp;pressure;altitude;pressure_sealevel;temperature;humidity
10097;BME280;5087;42.662;23.466;2022-07-29T00:01:54;95539.28;;;16.37;100.00
10097;BME280;5087;42.662;23.466;2022-07-29T00:04:21;95545.22;;;16.39;100.00
10097;BME280;5087;42.662;23.466;2022-07-29T00:06:48;95517.78;;;16.23;100.00
10097;BME280;5087;42.662;23.466;2022-07-29T00:09:15;95557.97;;;16.48;100.00
10097;BME280;5087;42.662;23.466;2022-07-29T00:11:42;95552.38;;;16.44;100.00
10097;BME280;5087;42.662;23.466;2022-07-29T00:14:09;95561.16;;;16.50;100.00
10097;BME280;5087;42.662;23.466;2022-07-29T00:16:38;95560.00;;;16.51;100.00
10097;BME280;5087;42.662;23.466;2022-07-29T00:19:05;95557.09;;;16.43;100.00
10097;BME280;5087;42.662;23.466;2022-07-29T00:21:32;95563.44;;;16.48;100.00
10097;BME280;5087;42.662;23.466;2022-07-29T00:23:59;95561.59;;;16.52;100.00
10097;BME280;5087;42.662;23.466;2022-07-29T00:26:26;95566.19;;;16.48;100.00
10097;BME280;5087;42.662;23.466;2022-07-29T00:28:57;95559.38;;;16.41;100.00
10097;BME280;5087;42.662;23.466;2022-07-29T00:31:25;95565.06;;;16.36;100.00
10097;BME280;5087;42.662;23.466;2022-07-29T00:33:53;95563.06;;;16.33;100.00
10097;BME280;5087;42.662;23.466;2022-07-29T00:36:20;95559.41;;;16.29;100.00
10097;BME280;5087;42.662;23.466;2022-07-29T00:38:47;95564.34;;;16.23;100.00
10097;BME280;5087;42.662;23.466;2022-07-29T00:41:14;95549.19;;;16.13;100.00
10097;BME280;5087;42.662;23.466;2022-07-29T00:43:42;95551.34;;;16.20;100.00
10097;BME280;5087;42.662;23.466;2022-07-29T00:46:09;95551.91;;;16.26;100.00
10097;BME280;5087;42.662;23.466;2022-07-29T00:48:37;95548.84;;;16.43;100.00
10097;BME280;5087;42.662;23.466;2022-07-29T00:51:06;95553.88;;;16.41;100.00
10097;BME280;5087;42.662;23.466;2022-07-29T00:53:36;95544.19;;;16.60;100.00
10097;BME280;5087;42.662;23.466;2022-07-29T00:56:03;95549.06;;;16.67;100.00
10097;BME280;5087;42.662;23.466;2022-07-29T00:58:31;95556.69;;;16.73;100.00
10097;BME280;5087;42.662;23.466;2022-07-29T01:00:58;115072.41;;;16.66;100.00
10097;BME280;5087;42.662;23.466;2022-07-29T01:03:25;65339.31;;;16.46;100.00
10097;BME280;5087;42.662;23.466;2022-07-29T01:05:53;65339.31;;;-149.02;100.00
10097;BME280;5087;42.662;23.466;2022-07-29T01:08:23;65339.31;;;-149.02;100.00
10097;BME280;5087;42.662;23.466;2022-07-29T01:10:50;121970.63;;;16.57;100.00
10097;BME280;5087;42.662;23.466;2022-07-29T01:13:19;95546.91;;;16.60;100.00
10097;BME280;5087;42.662;23.466;2022-07-29T01:15:51;95544.28;;;16.64;100.00
10097;BME280;5087;42.662;23.466;2022-07-29T01:18:28;95535.72;;;16.65;100.00
10097;BME280;5087;42.662;23.466;2022-07-29T01:21:15;95539.28;;;16.82;100.00
10097;BME280;5087;42.662;23.466;2022-07-29T01:24:11;95540.84;;;16.83;100.00
10097;BME280;5087;42.662;23.466;2022-07-29T01:29:17;95539.78;;;16.71;100.00
10097;BME280;5087;42.662;23.466;2022-07-29T01:31:48;95539.78;;;16.71;100.00
10097;BME280;5087;42.662;23.466;2022-07-29T01:34:21;95541.47;;;16.76;100.00
10097;BME280;5087;42.662;23.466;2022-07-29T01:36:54;65339.31;;;-149.02;100.00
10097;BME280;5087;42.662;23.466;2022-07-29T01:39:26;65339.31;;;-149.02;100.00
10097;BME280;5087;42.662;23.466;2022-07-29T01:41:58;65339.31;;;-149.02;100.00
10097;BME280;5087;42.662;23.466;2022-07-29T01:44:34;65339.31;;;-149.02;100.00
10097;BME280;5087;42.662;23.466;2022-07-29T01:47:08;65339.31;;;-149.02;100.00
10097;BME280;5087;42.662;23.466;2022-07-29T01:49:42;65339.31;;;-149.02;100.00
10097;BME280;5087;42.662;23.466;2022-07-29T01:52:18;65339.31;;;-149.02;100.00
10097;BME280;5087;42.662;23.466;2022-07-29T01:54:50;65339.31;;;-149.02;100.00
10097;BME280;5087;42.662;23.466;2022-07-29T01:57:21;65339.31;;;-149.02;100.00
10097;BME280;5087;42.662;23.466;2022-07-29T01:59:53;65339.31;;;-149.02;100.00
10097;BME280;5087;42.662;23.466;2022-07-29T02:02:22;65339.31;;;-149.02;100.00
10097;BME280;5087;42.662;23.466;2022-07-29T02:04:50;65339.31;;;-149.02;100.00
10097;BME280;5087;42.662;23.466;2022-07-29T02:07:21;65339.31;;;-149.02;100.00
10097;BME280;5087;42.662;23.466;2022-07-29T02:09:50;65339.31;;;-149.02;100.00
10097;BME280;5087;42.662;23.466;2022-07-29T02:12:18;65339.31;;;-149.02;100.00
10097;BME280;5087;42.662;23.466;2022-07-29T02:14:47;65339.31;;;-149.02;100.00
10097;BME280;5087;42.662;23.466;2022-07-29T02:17:21;65339.31;;;-149.02;100.00
10097;BME280;5087;42.662;23.466;2022-07-29T02:19:49;65339.31;;;-149.02;100.00
10097;BME280;5087;42.662;23.466;2022-07-29T02:22:18;65339.31;;;-149.02;100.00
10097;BME280;5087;42.662;23.466;2022-07-29T02:24:47;65339.31;;;-149.02;100.00
10097;BME280;5087;42.662;23.466;2022-07-29T02:27:17;65339.31;;;-149.02;100.00
10097;BME280;5087;42.662;23.466;2022-07-29T02:29:46;65339.31;;;-149.02;100.00
10097;BME280;5087;42.662;23.466;2022-07-29T02:32:17;65339.31;;;-149.02;100.00
10097;BME280;5087;42.662;23.466;2022-07-29T02:34:46;65339.31;;;-149.02;100.00
10097;BME280;5087;42.662;23.466;2022-07-29T02:37:15;65339.31;;;-149.02;100.00
10097;BME280;5087;42.662;23.466;2022-07-29T02:39:44;65339.31;;;-149.02;100.00
10097;BME280;5087;42.662;23.466;2022-07-29T02:42:15;65339.31;;;-149.02;100.00
10097;BME280;5087;42.662;23.466;2022-07-29T02:44:43;65339.31;;;-149.02;100.00
10097;BME280;5087;42.662;23.466;2022-07-29T02:47:15;65339.31;;;-149.02;100.00
10097;BME280;5087;42.662;23.466;2022-07-29T02:49:50;65339.31;;;-149.02;100.00
10097;BME280;5087;42.662;23.466;2022-07-29T02:52:24;65339.31;;;-149.02;100.00
10097;BME280;5087;42.662;23.466;2022-07-29T02:54:56;65339.31;;;-149.02;100.00
10097;BME280;5087;42.662;23.466;2022-07-29T02:57:30;65339.31;;;-149.02;100.00
10097;BME280;5087;42.662;23.466;2022-07-29T03:00:02;65339.31;;;-149.02;100.00
10097;BME280;5087;42.662;23.466;2022-07-29T03:02:33;65339.31;;;-149.02;100.00
10097;BME280;5087;42.662;23.466;2022-07-29T03:05:03;65339.31;;;-149.02;100.00
10097;BME280;5087;42.662;23.466;2022-07-29T03:07:31;65339.31;;;-149.02;100.00
10097;BME280;5087;42.662;23.466;2022-07-29T03:09:59;65339.31;;;-149.02;100.00
10097;BME280;5087;42.662;23.466;2022-07-29T03:12:28;65339.31;;;-149.02;100.00
10097;BME280;5087;42.662;23.466;2022-07-29T03:14:56;65339.31;;;-149.02;100.00
10097;BME280;5087;42.662;23.466;2022-07-29T03:17:24;65339.31;;;-149.02;100.00
10097;BME280;5087;42.662;23.466;2022-07-29T03:19:52;65339.31;;;-149.02;100.00
10097;BME280;5087;42.662;23.466;2022-07-29T03:22:20;65339.31;;;-149.02;100.00
10097;BME280;5087;42.662;23.466;2022-07-29T03:24:47;65339.31;;;-149.02;100.00
10097;BME280;5087;42.662;23.466;2022-07-29T03:27:14;65339.31;;;-149.02;100.00
10097;BME280;5087;42.662;23.466;2022-07-29T03:29:42;65339.31;;;-149.02;100.00
10097;BME280;5087;42.662;23.466;2022-07-29T03:32:09;65339.31;;;-149.02;100.00
10097;BME280;5087;42.662;23.466;2022-07-29T03:34:37;65339.31;;;-149.02;100.00
10097;BME280;5087;42.662;23.466;2022-07-29T03:37:05;65339.31;;;-149.02;100.00
10097;BME280;5087;42.662;23.466;2022-07-29T03:39:38;65339.31;;;-149.02;100.00
10097;BME280;5087;42.662;23.466;2022-07-29T03:42:09;65339.31;;;-149.02;100.00
10097;BME280;5087;42.662;23.466;2022-07-29T03:44:38;65339.31;;;-149.02;100.00
10097;BME280;5087;42.662;23.466;2022-07-29T03:47:08;65339.31;;;-149.02;100.00
10097;BME280;5087;42.662;23.466;2022-07-29T03:49:37;65339.31;;;-149.02;100.00
10097;BME280;5087;42.662;23.466;2022-07-29T03:52:06;65339.31;;;-149.02;100.00
10097;BME280;5087;42.662;23.466;2022-07-29T03:54:33;65339.31;;;-149.02;100.00
10097;BME280;5087;42.662;23.466;2022-07-29T03:57:03;65339.31;;;-149.02;100.00
10097;BME280;5087;42.662;23.466;2022-07-29T03:59:33;65339.31;;;-149.02;100.00
10097;BME280;5087;42.662;23.466;2022-07-29T04:02:02;65339.31;;;-149.02;100.00
10097;BME280;5087;42.662;23.466;2022-07-29T04:04:32;65339.31;;;-149.02;100.00
10097;BME280;5087;42.662;23.466;2022-07-29T04:07:00;65339.31;;;-149.02;100.00
10097;BME280;5087;42.662;23.466;2022-07-29T04:09:27;65339.31;;;-149.02;100.00
10097;BME280;5087;42.662;23.466;2022-07-29T04:11:54;65339.31;;;-149.02;100.00
10097;BME280;5087;42.662;23.466;2022-07-29T04:14:23;65339.31;;;-149.02;100.00
10097;BME280;5087;42.662;23.466;2022-07-29T04:16:50;65339.31;;;-149.02;100.00
10097;BME280;5087;42.662;23.466;2022-07-29T04:19:18;65339.31;;;-149.02;100.00
10097;BME280;5087;42.662;23.466;2022-07-29T04:21:45;65339.31;;;-149.02;100.00
10097;BME280;5087;42.662;23.466;2022-07-29T04:24:12;65339.31;;;-149.02;100.00
10097;BME280;5087;42.662;23.466;2022-07-29T04:26:39;65339.31;;;-149.02;100.00
10097;BME280;5087;42.662;23.466;2022-07-29T04:29:07;65339.31;;;-149.02;100.00
10097;BME280;5087;42.662;23.466;2022-07-29T04:31:35;65339.31;;;-149.02;100.00
10097;BME280;5087;42.662;23.466;2022-07-29T04:34:02;65339.31;;;-149.02;100.00
10097;BME280;5087;42.662;23.466;2022-07-29T04:36:29;65339.31;;;-149.02;100.00
10097;BME280;5087;42.662;23.466;2022-07-29T04:38:56;65339.31;;;-149.02;100.00
10097;BME280;5087;42.662;23.466;2022-07-29T04:41:24;65339.31;;;-149.02;100.00
10097;BME280;5087;42.662;23.466;2022-07-29T04:43:51;65339.31;;;-149.02;100.00
10097;BME280;5087;42.662;23.466;2022-07-29T04:46:18;65339.31;;;-149.02;100.00
10097;BME280;5087;42.662;23.466;2022-07-29T04:48:47;65339.31;;;-149.02;100.00
10097;BME280;5087;42.662;23.466;2022-07-29T04:51:14;65339.31;;;-149.02;100.00
10097;BME280;5087;42.662;23.466;2022-07-29T04:53:42;65339.31;;;-149.02;100.00
10097;BME280;5087;42.662;23.466;2022-07-29T04:56:09;65339.31;;;-149.02;100.00
10097;BME280;5087;42.662;23.466;2022-07-29T04:58:36;65339.31;;;-149.02;100.00
10097;BME280;5087;42.662;23.466;2022-07-29T05:01:04;65339.31;;;-149.02;100.00
10097;BME280;5087;42.662;23.466;2022-07-29T05:03:31;65339.31;;;-149.02;100.00
10097;BME280;5087;42.662;23.466;2022-07-29T05:05:59;65339.31;;;-149.02;100.00
10097;BME280;5087;42.662;23.466;2022-07-29T05:08:26;65339.31;;;-149.02;100.00
10097;BME280;5087;42.662;23.466;2022-07-29T05:10:54;65339.31;;;-149.02;100.00
10097;BME280;5087;42.662;23.466;2022-07-29T05:13:21;65339.31;;;-149.02;100.00
10097;BME280;5087;42.662;23.466;2022-07-29T05:15:48;65339.31;;;-149.02;100.00
10097;BME280;5087;42.662;23.466;2022-07-29T05:18:15;65339.31;;;-149.02;100.00
10097;BME280;5087;42.662;23.466;2022-07-29T05:20:43;65339.31;;;-149.02;100.00
10097;BME280;5087;42.662;23.466;2022-07-29T05:23:11;65339.31;;;-149.02;100.00
10097;BME280;5087;42.662;23.466;2022-07-29T05:25:40;65339.31;;;-149.02;100.00
10097;BME280;5087;42.662;23.466;2022-07-29T05:28:07;65339.31;;;-149.02;100.00
10097;BME280;5087;42.662;23.466;2022-07-29T05:30:34;65339.31;;;-149.02;100.00
10097;BME280;5087;42.662;23.466;2022-07-29T05:33:01;65339.31;;;-149.02;100.00
10097;BME280;5087;42.662;23.466;2022-07-29T05:35:28;65339.31;;;-149.02;100.00
10097;BME280;5087;42.662;23.466;2022-07-29T05:37:56;65339.31;;;-149.02;100.00
10097;BME280;5087;42.662;23.466;2022-07-29T05:40:24;65339.31;;;-149.02;100.00
10097;BME280;5087;42.662;23.466;2022-07-29T05:42:51;65339.31;;;-149.02;100.00
10097;BME280;5087;42.662;23.466;2022-07-29T05:45:18;65339.31;;;-149.02;100.00
10097;BME280;5087;42.662;23.466;2022-07-29T05:47:45;65339.31;;;-149.02;100.00
10097;BME280;5087;42.662;23.466;2022-07-29T05:50:12;65339.31;;;-149.02;100.00
10097;BME280;5087;42.662;23.466;2022-07-29T05:52:40;65339.31;;;-149.02;100.00
10097;BME280;5087;42.662;23.466;2022-07-29T05:55:08;65339.31;;;-149.02;100.00
10097;BME280;5087;42.662;23.466;2022-07-29T05:57:36;65339.31;;;-149.02;100.00
10097;BME280;5087;42.662;23.466;2022-07-29T06:00:04;65339.31;;;-149.02;100.00
10097;BME280;5087;42.662;23.466;2022-07-29T06:02:38;65339.31;;;-149.02;100.00
10097;BME280;5087;42.662;23.466;2022-07-29T06:05:06;65339.31;;;-149.02;100.00
10097;BME280;5087;42.662;23.466;2022-07-29T06:07:33;65339.31;;;-149.02;100.00
10097;BME280;5087;42.662;23.466;2022-07-29T06:10:00;65339.31;;;-149.02;100.00
10097;BME280;5087;42.662;23.466;2022-07-29T06:12:28;65339.31;;;-149.02;100.00
10097;BME280;5087;42.662;23.466;2022-07-29T06:14:56;65339.31;;;-149.02;100.00
10097;BME280;5087;42.662;23.466;2022-07-29T06:17:23;65339.31;;;-149.02;100.00
10097;BME280;5087;42.662;23.466;2022-07-29T06:19:51;65339.31;;;-149.02;100.00
10097;BME280;5087;42.662;23.466;2022-07-29T06:22:18;65339.31;;;-149.02;100.00
10097;BME280;5087;42.662;23.466;2022-07-29T06:24:45;65339.31;;;-149.02;100.00
10097;BME280;5087;42.662;23.466;2022-07-29T06:27:12;65339.31;;;-149.02;100.00
10097;BME280;5087;42.662;23.466;2022-07-29T06:29:39;65339.31;;;-149.02;100.00
10097;BME280;5087;42.662;23.466;2022-07-29T06:32:11;65339.31;;;-149.02;100.00
10097;BME280;5087;42.662;23.466;2022-07-29T06:34:38;65339.31;;;-149.02;100.00
10097;BME280;5087;42.662;23.466;2022-07-29T06:37:06;65339.31;;;-149.02;100.00
10097;BME280;5087;42.662;23.466;2022-07-29T06:39:34;65339.31;;;-149.02;100.00
10097;BME280;5087;42.662;23.466;2022-07-29T06:42:02;65339.31;;;-149.02;100.00
10097;BME280;5087;42.662;23.466;2022-07-29T06:44:30;65339.31;;;-149.02;100.00
10097;BME280;5087;42.662;23.466;2022-07-29T06:46:59;65339.31;;;-149.02;100.00
10097;BME280;5087;42.662;23.466;2022-07-29T06:49:28;65339.31;;;-149.02;100.00
10097;BME280;5087;42.662;23.466;2022-07-29T06:51:55;65339.31;;;-149.02;100.00
10097;BME280;5087;42.662;23.466;2022-07-29T06:54:22;65339.31;;;-149.02;100.00
10097;BME280;5087;42.662;23.466;2022-07-29T06:56:49;65339.31;;;-149.02;100.00
10097;BME280;5087;42.662;23.466;2022-07-29T06:59:16;65339.31;;;-149.02;100.00
10097;BME280;5087;42.662;23.466;2022-07-29T07:01:44;65339.31;;;-149.02;100.00
10097;BME280;5087;42.662;23.466;2022-07-29T07:04:11;65339.31;;;-149.02;100.00
10097;BME280;5087;42.662;23.466;2022-07-29T07:06:40;65339.31;;;-149.02;100.00
10097;BME280;5087;42.662;23.466;2022-07-29T07:09:07;65339.31;;;-149.02;100.00
10097;BME280;5087;42.662;23.466;2022-07-29T07:11:35;65339.31;;;-149.02;100.00
10097;BME280;5087;42.662;23.466;2022-07-29T07:14:02;65339.31;;;-149.02;100.00
10097;BME280;5087;42.662;23.466;2022-07-29T07:16:29;65339.31;;;-149.02;100.00
10097;BME280;5087;42.662;23.466;2022-07-29T07:18:57;65339.31;;;-149.02;100.00
10097;BME280;5087;42.662;23.466;2022-07-29T07:21:24;65339.31;;;-149.02;100.00
10097;BME280;5087;42.662;23.466;2022-07-29T07:23:53;65339.31;;;-149.02;100.00
10097;BME280;5087;42.662;23.466;2022-07-29T07:26:21;65339.31;;;-149.02;100.00
10097;BME280;5087;42.662;23.466;2022-07-29T07:28:48;65339.31;;;-149.02;100.00
10097;BME280;5087;42.662;23.466;2022-07-29T07:31:15;65339.31;;;-149.02;100.00
10097;BME280;5087;42.662;23.466;2022-07-29T07:33:43;65339.31;;;-149.02;100.00
10097;BME280;5087;42.662;23.466;2022-07-29T07:36:10;65339.31;;;-149.02;100.00
10097;BME280;5087;42.662;23.466;2022-07-29T07:38:37;65339.31;;;-149.02;100.00
10097;BME280;5087;42.662;23.466;2022-07-29T07:41:06;65339.31;;;-149.02;100.00
10097;BME280;5087;42.662;23.466;2022-07-29T07:43:33;65339.31;;;-149.02;100.00
10097;BME280;5087;42.662;23.466;2022-07-29T07:46:00;65339.31;;;-149.02;100.00
10097;BME280;5087;42.662;23.466;2022-07-29T07:48:27;65339.31;;;-149.02;100.00
10097;BME280;5087;42.662;23.466;2022-07-29T07:50:55;65339.31;;;-149.02;100.00
10097;BME280;5087;42.662;23.466;2022-07-29T07:53:22;65339.31;;;-149.02;100.00
10097;BME280;5087;42.662;23.466;2022-07-29T07:55:49;65339.31;;;-149.02;100.00
10097;BME280;5087;42.662;23.466;2022-07-29T07:58:18;65339.31;;;-149.02;100.00
10097;BME280;5087;42.662;23.466;2022-07-29T08:00:46;65339.31;;;-149.02;100.00
10097;BME280;5087;42.662;23.466;2022-07-29T08:03:13;65339.31;;;-149.02;100.00
10097;BME280;5087;42.662;23.466;2022-07-29T08:05:40;65339.31;;;-149.02;100.00
10097;BME280;5087;42.662;23.466;2022-07-29T08:08:07;65339.31;;;-149.02;100.00
10097;BME280;5087;42.662;23.466;2022-07-29T08:10:35;65339.31;;;-149.02;100.00
10097;BME280;5087;42.662;23.466;2022-07-29T08:13:24;65339.31;;;-149.02;100.00
10097;BME280;5087;42.662;23.466;2022-07-29T08:15:54;65339.31;;;-149.02;100.00
10097;BME280;5087;42.662;23.466;2022-07-29T08:18:25;65339.31;;;-149.02;100.00
10097;BME280;5087;42.662;23.466;2022-07-29T08:20:53;65339.31;;;-149.02;100.00
10097;BME280;5087;42.662;23.466;2022-07-29T08:23:20;65339.31;;;-149.02;100.00
10097;BME280;5087;42.662;23.466;2022-07-29T08:25:48;65339.31;;;-149.02;100.00
10097;BME280;5087;42.662;23.466;2022-07-29T08:28:16;65339.31;;;-149.02;100.00
10097;BME280;5087;42.662;23.466;2022-07-29T08:30:44;65339.31;;;-149.02;100.00
10097;BME280;5087;42.662;23.466;2022-07-29T08:33:12;65339.31;;;-149.02;100.00
10097;BME280;5087;42.662;23.466;2022-07-29T08:35:39;65339.31;;;-149.02;100.00
10097;BME280;5087;42.662;23.466;2022-07-29T08:38:07;65339.31;;;-149.02;100.00
10097;BME280;5087;42.662;23.466;2022-07-29T08:40:34;65339.31;;;-149.02;100.00
10097;BME280;5087;42.662;23.466;2022-07-29T08:43:05;65339.31;;;-149.02;100.00
10097;BME280;5087;42.662;23.466;2022-07-29T08:45:42;65339.31;;;-149.02;100.00
10097;BME280;5087;42.662;23.466;2022-07-29T08:48:11;65339.31;;;-149.02;100.00
10097;BME280;5087;42.662;23.466;2022-07-29T08:50:41;65339.31;;;-149.02;100.00
10097;BME280;5087;42.662;23.466;2022-07-29T08:53:12;65339.31;;;-149.02;100.00
10097;BME280;5087;42.662;23.466;2022-07-29T08:55:39;65339.31;;;-149.02;100.00
10097;BME280;5087;42.662;23.466;2022-07-29T08:58:08;65339.31;;;-149.02;100.00
10097;BME280;5087;42.662;23.466;2022-07-29T09:00:37;65339.31;;;-149.02;100.00
10097;BME280;5087;42.662;23.466;2022-07-29T09:03:08;65339.31;;;-149.02;100.00
10097;BME280;5087;42.662;23.466;2022-07-29T09:05:41;65339.31;;;-149.02;100.00
10097;BME280;5087;42.662;23.466;2022-07-29T09:08:09;65339.31;;;-149.02;100.00
10097;BME280;5087;42.662;23.466;2022-07-29T09:10:36;65339.31;;;-149.02;100.00
10097;BME280;5087;42.662;23.466;2022-07-29T09:13:04;65339.31;;;-149.02;100.00
10097;BME280;5087;42.662;23.466;2022-07-29T09:15:31;65339.31;;;-149.02;100.00
10097;BME280;5087;42.662;23.466;2022-07-29T09:17:59;65339.31;;;-149.02;100.00
10097;BME280;5087;42.662;23.466;2022-07-29T09:20:27;65339.31;;;-149.02;100.00
10097;BME280;5087;42.662;23.466;2022-07-29T09:23:17;65339.31;;;-149.02;100.00
10097;BME280;5087;42.662;23.466;2022-07-29T09:25:44;65339.31;;;-149.02;100.00
10097;BME280;5087;42.662;23.466;2022-07-29T09:28:13;65339.31;;;-149.02;100.00
10097;BME280;5087;42.662;23.466;2022-07-29T09:30:50;65339.31;;;-149.02;100.00
10097;BME280;5087;42.662;23.466;2022-07-29T09:33:19;65339.31;;;-149.02;100.00
10097;BME280;5087;42.662;23.466;2022-07-29T09:35:58;65339.31;;;-149.02;100.00
10097;BME280;5087;42.662;23.466;2022-07-29T09:38:28;65339.31;;;-149.02;100.00
10097;BME280;5087;42.662;23.466;2022-07-29T09:40:59;65339.31;;;-149.02;100.00
10097;BME280;5087;42.662;23.466;2022-07-29T09:43:27;65339.31;;;-149.02;100.00
10097;BME280;5087;42.662;23.466;2022-07-29T09:45:55;65339.31;;;-149.02;100.00
10097;BME280;5087;42.662;23.466;2022-07-29T09:48:24;65339.31;;;-149.02;100.00
10097;BME280;5087;42.662;23.466;2022-07-29T09:50:51;65339.31;;;-149.02;100.00
10097;BME280;5087;42.662;23.466;2022-07-29T09:53:33;65339.31;;;-149.02;100.00
10097;BME280;5087;42.662;23.466;2022-07-29T09:56:01;65339.31;;;-149.02;100.00
10097;BME280;5087;42.662;23.466;2022-07-29T09:58:29;65339.31;;;-149.02;100.00
10097;BME280;5087;42.662;23.466;2022-07-29T10:00:56;65339.31;;;-149.02;100.00
10097;BME280;5087;42.662;23.466;2022-07-29T10:03:24;65339.31;;;-149.02;100.00
10097;BME280;5087;42.662;23.466;2022-07-29T10:06:08;65339.31;;;-149.02;100.00
10097;BME280;5087;42.662;23.466;2022-07-29T10:08:37;65339.31;;;-149.02;100.00
10097;BME280;5087;42.662;23.466;2022-07-29T10:11:15;65339.31;;;-149.02;100.00
10097;BME280;5087;42.662;23.466;2022-07-29T10:13:45;65339.31;;;-149.02;100.00
10097;BME280;5087;42.662;23.466;2022-07-29T10:16:13;65339.31;;;-149.02;100.00
10097;BME280;5087;42.662;23.466;2022-07-29T10:18:42;65339.31;;;-149.02;100.00
10097;BME280;5087;42.662;23.466;2022-07-29T10:21:10;65339.31;;;-149.02;100.00
10097;BME280;5087;42.662;23.466;2022-07-29T10:23:39;65339.31;;;-149.02;100.00
10097;BME280;5087;42.662;23.466;2022-07-29T10:26:09;65339.31;;;-149.02;100.00
10097;BME280;5087;42.662;23.466;2022-07-29T10:28:37;65339.31;;;-149.02;100.00
10097;BME280;5087;42.662;23.466;2022-07-29T10:31:06;65339.31;;;-149.02;100.00
10097;BME280;5087;42.662;23.466;2022-07-29T10:33:44;65339.31;;;-149.02;100.00
10097;BME280;5087;42.662;23.466;2022-07-29T10:36:32;65339.31;;;-149.02;100.00
10097;BME280;5087;42.662;23.466;2022-07-29T10:39:18;65339.31;;;-149.02;100.00
10097;BME280;5087;42.662;23.466;2022-07-29T10:42:06;65339.31;;;-149.02;100.00
10097;BME280;5087;42.662;23.466;2022-07-29T10:44:40;65339.31;;;-149.02;100.00
10097;BME280;5087;42.662;23.466;2022-07-29T10:47:19;65339.31;;;-149.02;100.00
10097;BME280;5087;42.662;23.466;2022-07-29T10:49:55;65339.31;;;-149.02;100.00
10097;BME280;5087;42.662;23.466;2022-07-29T10:52:23;65339.31;;;-149.02;100.00
10097;BME280;5087;42.662;23.466;2022-07-29T10:54:54;65339.31;;;-149.02;100.00
10097;BME280;5087;42.662;23.466;2022-07-29T10:57:25;65339.31;;;-149.02;100.00
10097;BME280;5087;42.662;23.466;2022-07-29T11:00:25;65339.31;;;-149.02;100.00
10097;BME280;5087;42.662;23.466;2022-07-29T11:02:53;65339.31;;;-149.02;100.00
10097;BME280;5087;42.662;23.466;2022-07-29T11:05:22;65339.31;;;-149.02;100.00
10097;BME280;5087;42.662;23.466;2022-07-29T11:08:19;65339.31;;;-149.02;100.00
10097;BME280;5087;42.662;23.466;2022-07-29T11:10:51;65339.31;;;-149.02;100.00
10097;BME280;5087;42.662;23.466;2022-07-29T11:13:50;65339.31;;;-149.02;100.00
10097;BME280;5087;42.662;23.466;2022-07-29T11:16:18;65339.31;;;-149.02;100.00
10097;BME280;5087;42.662;23.466;2022-07-29T11:19:18;65339.31;;;-149.02;100.00
10097;BME280;5087;42.662;23.466;2022-07-29T11:21:46;65339.31;;;-149.02;100.00
10097;BME280;5087;42.662;23.466;2022-07-29T11:24:20;65339.31;;;-149.02;100.00
10097;BME280;5087;42.662;23.466;2022-07-29T11:31:03;65339.31;;;-149.02;100.00
10097;BME280;5087;42.662;23.466;2022-07-29T11:33:41;65339.31;;;-149.02;100.00
10097;BME280;5087;42.662;23.466;2022-07-29T11:43:04;65339.31;;;-149.02;100.00
10097;BME280;5087;42.662;23.466;2022-07-29T11:45:53;65339.31;;;-149.02;100.00
10097;BME280;5087;42.662;23.466;2022-07-29T11:51:57;65339.31;;;-149.02;100.00
10097;BME280;5087;42.662;23.466;2022-07-29T11:54:40;65339.31;;;-149.02;100.00
10097;BME280;5087;42.662;23.466;2022-07-29T11:57:14;65339.31;;;-149.02;100.00
10097;BME280;5087;42.662;23.466;2022-07-29T12:00:10;65339.31;;;-149.02;100.00
10097;BME280;5087;42.662;23.466;2022-07-29T12:02:59;65339.31;;;-149.02;100.00
10097;BME280;5087;42.662;23.466;2022-07-29T12:05:53;65339.31;;;-149.02;100.00
10097;BME280;5087;42.662;23.466;2022-07-29T12:09:14;65339.31;;;-149.02;100.00
10097;BME280;5087;42.662;23.466;2022-07-29T12:11:59;65339.31;;;-149.02;100.00
10097;BME280;5087;42.662;23.466;2022-07-29T12:14:36;65339.31;;;-149.02;100.00
10097;BME280;5087;42.662;23.466;2022-07-29T12:18:15;65339.31;;;-149.02;100.00
10097;BME280;5087;42.662;23.466;2022-07-29T12:20:57;65339.31;;;-149.02;100.00
10097;BME280;5087;42.662;23.466;2022-07-29T12:26:36;65339.31;;;-149.02;100.00
10097;BME280;5087;42.662;23.466;2022-07-29T12:29:15;65339.31;;;-149.02;100.00
10097;BME280;5087;42.662;23.466;2022-07-29T12:31:44;65339.31;;;-149.02;100.00
10097;BME280;5087;42.662;23.466;2022-07-29T12:34:13;65339.31;;;-149.02;100.00
10097;BME280;5087;42.662;23.466;2022-07-29T12:36:50;65339.31;;;-149.02;100.00
10097;BME280;5087;42.662;23.466;2022-07-29T12:39:18;65339.31;;;-149.02;100.00
10097;BME280;5087;42.662;23.466;2022-07-29T12:41:47;65339.31;;;-149.02;100.00
10097;BME280;5087;42.662;23.466;2022-07-29T12:44:14;65339.31;;;-149.02;100.00
10097;BME280;5087;42.662;23.466;2022-07-29T12:46:42;65339.31;;;-149.02;100.00
10097;BME280;5087;42.662;23.466;2022-07-29T12:49:21;65339.31;;;-149.02;100.00
10097;BME280;5087;42.662;23.466;2022-07-29T12:51:48;65339.31;;;-149.02;100.00
10097;BME280;5087;42.662;23.466;2022-07-29T12:54:15;65339.31;;;-149.02;100.00
10097;BME280;5087;42.662;23.466;2022-07-29T12:56:44;65339.31;;;-149.02;100.00
10097;BME280;5087;42.662;23.466;2022-07-29T12:59:14;65339.31;;;-149.02;100.00
10097;BME280;5087;42.662;23.466;2022-07-29T13:01:42;65339.31;;;-149.02;100.00
10097;BME280;5087;42.662;23.466;2022-07-29T13:04:10;65339.31;;;-149.02;100.00
10097;BME280;5087;42.662;23.466;2022-07-29T13:06:40;65339.31;;;-149.02;100.00
10097;BME280;5087;42.662;23.466;2022-07-29T13:09:09;65339.31;;;-149.02;100.00
10097;BME280;5087;42.662;23.466;2022-07-29T13:11:40;65339.31;;;-149.02;100.00